sensor_id;sensor_type;location;lat;lon;timestamp;temperature;humidity
11304;DHT22;5707;49.588;12.148;2023-04-24T00:01:39;9.50;99.90
11304;DHT22;5707;49.588;12.148;2023-04-24T00:04:06;9.50;99.90
11304;DHT22;5707;49.588;12.148;2023-04-24T00:06:32;9.50;99.90
11304;DHT22;5707;49.588;12.148;2023-04-24T00:09:02;9.50;99.90
11304;DHT22;5707;49.588;12.148;2023-04-24T00:11:29;9.60;99.90
11304;DHT22;5707;49.588;12.148;2023-04-24T00:13:55;9.60;99.90
11304;DHT22;5707;49.588;12.148;2023-04-24T00:16:21;9.60;99.90
11304;DHT22;5707;49.588;12.148;2023-04-24T00:18:47;9.60;99.90
11304;DHT22;5707;49.588;12.148;2023-04-24T00:21:13;9.60;99.90
11304;DHT22;5707;49.588;12.148;2023-04-24T00:23:40;9.60;99.90
11304;DHT22;5707;49.588;12.148;2023-04-24T00:26:05;9.60;99.90
11304;DHT22;5707;49.588;12.148;2023-04-24T00:28:31;9.60;99.90
11304;DHT22;5707;49.588;12.148;2023-04-24T00:30:57;9.60;99.90
11304;DHT22;5707;49.588;12.148;2023-04-24T00:33:22;9.60;99.90
11304;DHT22;5707;49.588;12.148;2023-04-24T00:35:48;9.50;99.90
11304;DHT22;5707;49.588;12.148;2023-04-24T00:38:13;9.40;99.90
11304;DHT22;5707;49.588;12.148;2023-04-24T00:40:39;9.40;99.90
11304;DHT22;5707;49.588;12.148;2023-04-24T00:43:05;9.40;99.90
11304;DHT22;5707;49.588;12.148;2023-04-24T00:45:30;9.40;99.90
11304;DHT22;5707;49.588;12.148;2023-04-24T00:47:57;9.30;99.90
11304;DHT22;5707;49.588;12.148;2023-04-24T00:50:24;9.30;99.90
11304;DHT22;5707;49.588;12.148;2023-04-24T00:52:50;9.20;99.90
11304;DHT22;5707;49.588;12.148;2023-04-24T00:55:16;9.20;99.90
11304;DHT22;5707;49.588;12.148;2023-04-24T00:57:43;9.20;99.90
11304;DHT22;5707;49.588;12.148;2023-04-24T01:00:09;9.10;99.90
11304;DHT22;5707;49.588;12.148;2023-04-24T01:02:40;9.10;99.90
11304;DHT22;5707;49.588;12.148;2023-04-24T01:05:09;9.20;99.90
11304;DHT22;5707;49.588;12.148;2023-04-24T01:07:35;9.20;99.90
11304;DHT22;5707;49.588;12.148;2023-04-24T01:10:01;9.30;99.90
11304;DHT22;5707;49.588;12.148;2023-04-24T01:12:26;9.30;99.90
11304;DHT22;5707;49.588;12.148;2023-04-24T01:14:52;9.40;99.90
11304;DHT22;5707;49.588;12.148;2023-04-24T01:17:17;9.40;99.90
11304;DHT22;5707;49.588;12.148;2023-04-24T01:19:43;9.50;99.90
11304;DHT22;5707;49.588;12.148;2023-04-24T01:22:15;9.50;99.90
11304;DHT22;5707;49.588;12.148;2023-04-24T01:24:42;9.50;99.90
11304;DHT22;5707;49.588;12.148;2023-04-24T01:27:09;9.50;99.90
11304;DHT22;5707;49.588;12.148;2023-04-24T01:29:34;9.40;99.90
11304;DHT22;5707;49.588;12.148;2023-04-24T01:32:00;9.40;99.90
11304;DHT22;5707;49.588;12.148;2023-04-24T01:34:26;9.40;99.90
11304;DHT22;5707;49.588;12.148;2023-04-24T01:36:52;9.40;99.90
11304;DHT22;5707;49.588;12.148;2023-04-24T01:39:17;9.40;99.90
11304;DHT22;5707;49.588;12.148;2023-04-24T01:41:43;9.30;99.90
11304;DHT22;5707;49.588;12.148;2023-04-24T01:44:09;9.40;99.90
11304;DHT22;5707;49.588;12.148;2023-04-24T01:46:35;9.40;99.90
11304;DHT22;5707;49.588;12.148;2023-04-24T01:49:01;9.40;99.90
11304;DHT22;5707;49.588;12.148;2023-04-24T01:51:27;9.40;99.90
11304;DHT22;5707;49.588;12.148;2023-04-24T01:53:53;9.40;99.90
11304;DHT22;5707;49.588;12.148;2023-04-24T01:56:20;9.30;99.90
11304;DHT22;5707;49.588;12.148;2023-04-24T01:58:46;9.30;99.90
11304;DHT22;5707;49.588;12.148;2023-04-24T02:01:23;9.20;99.90
11304;DHT22;5707;49.588;12.148;2023-04-24T02:03:49;9.20;99.90
11304;DHT22;5707;49.588;12.148;2023-04-24T02:06:15;9.10;99.90
11304;DHT22;5707;49.588;12.148;2023-04-24T02:08:40;9.00;99.90
11304;DHT22;5707;49.588;12.148;2023-04-24T02:11:06;8.90;99.90
11304;DHT22;5707;49.588;12.148;2023-04-24T02:13:31;8.80;99.90
11304;DHT22;5707;49.588;12.148;2023-04-24T02:15:58;8.70;99.90
11304;DHT22;5707;49.588;12.148;2023-04-24T02:18:24;8.70;99.90
11304;DHT22;5707;49.588;12.148;2023-04-24T02:20:49;8.60;99.90
11304;DHT22;5707;49.588;12.148;2023-04-24T02:23:15;8.60;99.90
11304;DHT22;5707;49.588;12.148;2023-04-24T02:25:41;8.60;99.90
11304;DHT22;5707;49.588;12.148;2023-04-24T02:28:06;8.50;99.90
11304;DHT22;5707;49.588;12.148;2023-04-24T02:30:32;8.50;99.90
11304;DHT22;5707;49.588;12.148;2023-04-24T02:32:57;8.50;99.90
11304;DHT22;5707;49.588;12.148;2023-04-24T02:35:23;8.50;99.90
11304;DHT22;5707;49.588;12.148;2023-04-24T02:37:48;8.50;99.90
11304;DHT22;5707;49.588;12.148;2023-04-24T02:40:14;8.40;99.90
11304;DHT22;5707;49.588;12.148;2023-04-24T02:42:40;8.40;99.90
11304;DHT22;5707;49.588;12.148;2023-04-24T02:45:06;8.30;99.90
11304;DHT22;5707;49.588;12.148;2023-04-24T02:47:31;8.20;99.90
11304;DHT22;5707;49.588;12.148;2023-04-24T02:49:57;8.20;99.90
11304;DHT22;5707;49.588;12.148;2023-04-24T02:52:22;8.20;99.90
11304;DHT22;5707;49.588;12.148;2023-04-24T02:54:48;8.10;99.90
11304;DHT22;5707;49.588;12.148;2023-04-24T02:57:13;8.10;99.90
11304;DHT22;5707;49.588;12.148;2023-04-24T02:59:40;8.10;99.90
11304;DHT22;5707;49.588;12.148;2023-04-24T03:02:05;8.10;99.90
11304;DHT22;5707;49.588;12.148;2023-04-24T03:04:31;8.20;99.90
11304;DHT22;5707;49.588;12.148;2023-04-24T03:06:57;8.20;99.90
11304;DHT22;5707;49.588;12.148;2023-04-24T03:09:23;8.20;99.90
11304;DHT22;5707;49.588;12.148;2023-04-24T03:11:48;8.20;99.90
11304;DHT22;5707;49.588;12.148;2023-04-24T03:14:15;8.30;99.90
11304;DHT22;5707;49.588;12.148;2023-04-24T03:16:40;8.30;99.90
11304;DHT22;5707;49.588;12.148;2023-04-24T03:19:06;8.40;99.90
11304;DHT22;5707;49.588;12.148;2023-04-24T03:21:32;8.40;99.90
11304;DHT22;5707;49.588;12.148;2023-04-24T03:23:58;8.40;99.90
11304;DHT22;5707;49.588;12.148;2023-04-24T03:26:23;8.40;99.90
11304;DHT22;5707;49.588;12.148;2023-04-24T03:28:49;8.40;99.90
11304;DHT22;5707;49.588;12.148;2023-04-24T03:31:14;8.30;99.90
11304;DHT22;5707;49.588;12.148;2023-04-24T03:33:40;8.20;99.90
11304;DHT22;5707;49.588;12.148;2023-04-24T03:36:06;8.10;99.90
11304;DHT22;5707;49.588;12.148;2023-04-24T03:38:32;8.10;99.90
11304;DHT22;5707;49.588;12.148;2023-04-24T03:40:57;8.00;99.90
11304;DHT22;5707;49.588;12.148;2023-04-24T03:43:23;8.00;99.90
11304;DHT22;5707;49.588;12.148;2023-04-24T03:45:49;8.00;99.90
11304;DHT22;5707;49.588;12.148;2023-04-24T03:48:14;8.00;99.90
11304;DHT22;5707;49.588;12.148;2023-04-24T03:50:40;7.90;99.90
11304;DHT22;5707;49.588;12.148;2023-04-24T03:53:05;8.00;99.90
11304;DHT22;5707;49.588;12.148;2023-04-24T03:55:31;8.00;99.90
11304;DHT22;5707;49.588;12.148;2023-04-24T03:57:56;8.00;99.90
11304;DHT22;5707;49.588;12.148;2023-04-24T04:00:22;8.10;99.90
11304;DHT22;5707;49.588;12.148;2023-04-24T04:02:47;8.20;99.90
11304;DHT22;5707;49.588;12.148;2023-04-24T04:05:13;8.20;99.90
11304;DHT22;5707;49.588;12.148;2023-04-24T04:07:39;8.30;99.90
11304;DHT22;5707;49.588;12.148;2023-04-24T04:10:05;8.30;99.90
11304;DHT22;5707;49.588;12.148;2023-04-24T04:12:32;8.30;99.90
11304;DHT22;5707;49.588;12.148;2023-04-24T04:14:57;8.30;99.90
11304;DHT22;5707;49.588;12.148;2023-04-24T04:17:23;8.30;99.90
11304;DHT22;5707;49.588;12.148;2023-04-24T04:19:49;8.30;99.90
11304;DHT22;5707;49.588;12.148;2023-04-24T04:22:14;8.40;99.90
11304;DHT22;5707;49.588;12.148;2023-04-24T04:24:40;8.40;99.90
11304;DHT22;5707;49.588;12.148;2023-04-24T04:27:06;8.50;99.90
11304;DHT22;5707;49.588;12.148;2023-04-24T04:29:32;8.50;99.90
11304;DHT22;5707;49.588;12.148;2023-04-24T04:31:58;8.50;99.90
11304;DHT22;5707;49.588;12.148;2023-04-24T04:34:24;8.50;99.90
11304;DHT22;5707;49.588;12.148;2023-04-24T04:36:49;8.50;99.90
11304;DHT22;5707;49.588;12.148;2023-04-24T04:39:15;8.60;99.90
11304;DHT22;5707;49.588;12.148;2023-04-24T04:41:42;8.60;99.90
11304;DHT22;5707;49.588;12.148;2023-04-24T04:44:07;8.60;99.90
11304;DHT22;5707;49.588;12.148;2023-04-24T04:46:34;8.60;99.90
11304;DHT22;5707;49.588;12.148;2023-04-24T04:49:00;8.60;99.90
11304;DHT22;5707;49.588;12.148;2023-04-24T04:51:26;8.60;99.90
11304;DHT22;5707;49.588;12.148;2023-04-24T04:53:52;8.60;99.90
11304;DHT22;5707;49.588;12.148;2023-04-24T04:56:18;8.50;99.90
11304;DHT22;5707;49.588;12.148;2023-04-24T04:58:44;8.60;99.90
11304;DHT22;5707;49.588;12.148;2023-04-24T05:01:09;8.60;99.90
11304;DHT22;5707;49.588;12.148;2023-04-24T05:03:35;8.60;99.90
11304;DHT22;5707;49.588;12.148;2023-04-24T05:06:01;8.60;99.90
11304;DHT22;5707;49.588;12.148;2023-04-24T05:08:27;8.60;99.90
11304;DHT22;5707;49.588;12.148;2023-04-24T05:10:53;8.60;99.90
11304;DHT22;5707;49.588;12.148;2023-04-24T05:13:19;8.60;99.90
11304;DHT22;5707;49.588;12.148;2023-04-24T05:15:45;8.70;99.90
11304;DHT22;5707;49.588;12.148;2023-04-24T05:18:10;8.70;99.90
11304;DHT22;5707;49.588;12.148;2023-04-24T05:20:36;8.70;99.90
11304;DHT22;5707;49.588;12.148;2023-04-24T05:23:01;8.70;99.90
11304;DHT22;5707;49.588;12.148;2023-04-24T05:25:27;8.80;99.90
11304;DHT22;5707;49.588;12.148;2023-04-24T05:27:52;8.80;99.90
11304;DHT22;5707;49.588;12.148;2023-04-24T05:30:19;8.80;99.90
11304;DHT22;5707;49.588;12.148;2023-04-24T05:32:45;8.90;99.90
11304;DHT22;5707;49.588;12.148;2023-04-24T05:35:11;8.90;99.90
11304;DHT22;5707;49.588;12.148;2023-04-24T05:37:36;9.00;99.90
11304;DHT22;5707;49.588;12.148;2023-04-24T05:40:02;9.10;99.90
11304;DHT22;5707;49.588;12.148;2023-04-24T05:42:30;9.10;99.90
11304;DHT22;5707;49.588;12.148;2023-04-24T05:44:55;9.20;99.90
11304;DHT22;5707;49.588;12.148;2023-04-24T05:47:21;9.30;99.90
11304;DHT22;5707;49.588;12.148;2023-04-24T05:49:49;9.40;99.90
11304;DHT22;5707;49.588;12.148;2023-04-24T05:52:15;9.50;99.90
11304;DHT22;5707;49.588;12.148;2023-04-24T05:54:40;9.70;99.90
11304;DHT22;5707;49.588;12.148;2023-04-24T05:57:06;9.80;99.90
11304;DHT22;5707;49.588;12.148;2023-04-24T05:59:38;9.80;99.90
11304;DHT22;5707;49.588;12.148;2023-04-24T06:02:04;9.90;99.90
11304;DHT22;5707;49.588;12.148;2023-04-24T06:04:31;10.00;99.90
11304;DHT22;5707;49.588;12.148;2023-04-24T06:06:56;10.20;99.90
11304;DHT22;5707;49.588;12.148;2023-04-24T06:09:22;10.40;99.90
11304;DHT22;5707;49.588;12.148;2023-04-24T06:11:49;10.60;99.90
11304;DHT22;5707;49.588;12.148;2023-04-24T06:14:15;10.70;99.90
11304;DHT22;5707;49.588;12.148;2023-04-24T06:16:42;10.90;99.90
11304;DHT22;5707;49.588;12.148;2023-04-24T06:19:07;11.10;99.90
11304;DHT22;5707;49.588;12.148;2023-04-24T06:21:33;11.20;99.90
11304;DHT22;5707;49.588;12.148;2023-04-24T06:23:59;11.30;99.90
11304;DHT22;5707;49.588;12.148;2023-04-24T06:26:24;11.50;99.90
11304;DHT22;5707;49.588;12.148;2023-04-24T06:28:52;11.70;99.90
11304;DHT22;5707;49.588;12.148;2023-04-24T06:31:19;11.80;99.90
11304;DHT22;5707;49.588;12.148;2023-04-24T06:33:45;12.00;99.90
11304;DHT22;5707;49.588;12.148;2023-04-24T06:36:11;12.20;99.90
11304;DHT22;5707;49.588;12.148;2023-04-24T06:38:37;12.20;99.90
11304;DHT22;5707;49.588;12.148;2023-04-24T06:41:02;12.30;99.90
11304;DHT22;5707;49.588;12.148;2023-04-24T06:43:31;12.40;99.90
11304;DHT22;5707;49.588;12.148;2023-04-24T06:45:58;12.60;99.90
11304;DHT22;5707;49.588;12.148;2023-04-24T06:48:24;12.80;99.90
11304;DHT22;5707;49.588;12.148;2023-04-24T06:50:50;12.90;99.90
11304;DHT22;5707;49.588;12.148;2023-04-24T06:53:16;13.00;99.90
11304;DHT22;5707;49.588;12.148;2023-04-24T06:55:41;13.30;99.90
11304;DHT22;5707;49.588;12.148;2023-04-24T06:58:08;13.50;99.90
11304;DHT22;5707;49.588;12.148;2023-04-24T07:00:34;13.70;99.90
11304;DHT22;5707;49.588;12.148;2023-04-24T07:03:00;13.80;99.90
11304;DHT22;5707;49.588;12.148;2023-04-24T07:05:25;13.70;99.90
11304;DHT22;5707;49.588;12.148;2023-04-24T07:07:51;13.80;99.90
11304;DHT22;5707;49.588;12.148;2023-04-24T07:10:17;13.70;99.90
11304;DHT22;5707;49.588;12.148;2023-04-24T07:12:43;13.70;99.90
11304;DHT22;5707;49.588;12.148;2023-04-24T07:15:09;13.70;99.90
11304;DHT22;5707;49.588;12.148;2023-04-24T07:17:34;13.80;99.90
11304;DHT22;5707;49.588;12.148;2023-04-24T07:20:00;13.90;99.90
11304;DHT22;5707;49.588;12.148;2023-04-24T07:22:26;13.90;99.90
11304;DHT22;5707;49.588;12.148;2023-04-24T07:24:51;13.80;99.90
11304;DHT22;5707;49.588;12.148;2023-04-24T07:27:17;13.80;99.90
11304;DHT22;5707;49.588;12.148;2023-04-24T07:29:43;13.90;99.90
11304;DHT22;5707;49.588;12.148;2023-04-24T07:32:08;14.10;99.90
11304;DHT22;5707;49.588;12.148;2023-04-24T07:34:34;14.40;99.90
11304;DHT22;5707;49.588;12.148;2023-04-24T07:37:00;14.70;99.90
11304;DHT22;5707;49.588;12.148;2023-04-24T07:39:26;15.00;99.90
11304;DHT22;5707;49.588;12.148;2023-04-24T07:41:51;15.50;99.90
11304;DHT22;5707;49.588;12.148;2023-04-24T07:44:17;15.90;99.90
11304;DHT22;5707;49.588;12.148;2023-04-24T07:46:43;16.20;99.90
11304;DHT22;5707;49.588;12.148;2023-04-24T07:49:08;16.70;99.90
11304;DHT22;5707;49.588;12.148;2023-04-24T07:51:34;16.90;99.90
11304;DHT22;5707;49.588;12.148;2023-04-24T07:54:04;16.40;99.90
11304;DHT22;5707;49.588;12.148;2023-04-24T07:56:31;16.00;99.90
11304;DHT22;5707;49.588;12.148;2023-04-24T07:58:57;15.70;99.90
11304;DHT22;5707;49.588;12.148;2023-04-24T08:01:22;15.40;99.90
11304;DHT22;5707;49.588;12.148;2023-04-24T08:03:48;14.90;99.90
11304;DHT22;5707;49.588;12.148;2023-04-24T08:06:13;14.50;99.90
11304;DHT22;5707;49.588;12.148;2023-04-24T08:08:39;14.20;99.90
11304;DHT22;5707;49.588;12.148;2023-04-24T08:11:05;13.80;99.90
11304;DHT22;5707;49.588;12.148;2023-04-24T08:13:30;13.50;99.90
11304;DHT22;5707;49.588;12.148;2023-04-24T08:15:56;13.30;99.90
11304;DHT22;5707;49.588;12.148;2023-04-24T08:18:22;12.90;99.90
11304;DHT22;5707;49.588;12.148;2023-04-24T08:20:48;12.80;99.90
11304;DHT22;5707;49.588;12.148;2023-04-24T08:23:13;13.00;99.90
11304;DHT22;5707;49.588;12.148;2023-04-24T08:25:39;13.30;99.90
11304;DHT22;5707;49.588;12.148;2023-04-24T08:28:06;13.60;99.90
11304;DHT22;5707;49.588;12.148;2023-04-24T08:30:33;13.70;99.90
11304;DHT22;5707;49.588;12.148;2023-04-24T08:32:59;13.80;99.90
11304;DHT22;5707;49.588;12.148;2023-04-24T08:35:25;14.00;99.90
11304;DHT22;5707;49.588;12.148;2023-04-24T08:37:52;14.40;99.90
11304;DHT22;5707;49.588;12.148;2023-04-24T08:40:21;14.90;99.90
11304;DHT22;5707;49.588;12.148;2023-04-24T08:42:48;15.50;99.90
11304;DHT22;5707;49.588;12.148;2023-04-24T08:45:14;16.20;99.90
11304;DHT22;5707;49.588;12.148;2023-04-24T08:47:41;16.60;99.90
11304;DHT22;5707;49.588;12.148;2023-04-24T08:50:08;16.80;99.90
11304;DHT22;5707;49.588;12.148;2023-04-24T08:52:35;16.80;99.90
11304;DHT22;5707;49.588;12.148;2023-04-24T08:55:01;16.70;99.90
11304;DHT22;5707;49.588;12.148;2023-04-24T08:57:28;16.50;99.90
11304;DHT22;5707;49.588;12.148;2023-04-24T08:59:54;16.50;99.90
11304;DHT22;5707;49.588;12.148;2023-04-24T09:02:21;16.40;99.90
11304;DHT22;5707;49.588;12.148;2023-04-24T09:04:47;16.70;99.90
11304;DHT22;5707;49.588;12.148;2023-04-24T09:07:14;17.00;99.90
11304;DHT22;5707;49.588;12.148;2023-04-24T09:09:41;17.10;99.50
11304;DHT22;5707;49.588;12.148;2023-04-24T09:12:07;17.20;99.90
11304;DHT22;5707;49.588;12.148;2023-04-24T09:14:34;17.50;99.90
11304;DHT22;5707;49.588;12.148;2023-04-24T09:17:02;17.80;99.80
11304;DHT22;5707;49.588;12.148;2023-04-24T09:19:27;18.00;99.30
11304;DHT22;5707;49.588;12.148;2023-04-24T09:21:53;18.30;97.10
11304;DHT22;5707;49.588;12.148;2023-04-24T09:24:21;18.50;97.10
11304;DHT22;5707;49.588;12.148;2023-04-24T09:26:57;18.90;97.10
11304;DHT22;5707;49.588;12.148;2023-04-24T09:29:24;19.10;93.50
11304;DHT22;5707;49.588;12.148;2023-04-24T09:31:50;19.00;93.50
11304;DHT22;5707;49.588;12.148;2023-04-24T09:34:24;19.20;93.60
11304;DHT22;5707;49.588;12.148;2023-04-24T09:36:50;19.30;93.80
11304;DHT22;5707;49.588;12.148;2023-04-24T09:39:17;19.40;93.80
11304;DHT22;5707;49.588;12.148;2023-04-24T09:41:44;19.40;90.70
11304;DHT22;5707;49.588;12.148;2023-04-24T09:44:21;19.10;89.60
11304;DHT22;5707;49.588;12.148;2023-04-24T09:46:53;18.80;91.50
11304;DHT22;5707;49.588;12.148;2023-04-24T09:49:27;18.50;92.00
11304;DHT22;5707;49.588;12.148;2023-04-24T09:52:06;18.40;92.40
11304;DHT22;5707;49.588;12.148;2023-04-24T09:54:32;18.50;91.70
11304;DHT22;5707;49.588;12.148;2023-04-24T09:56:58;18.80;91.00
11304;DHT22;5707;49.588;12.148;2023-04-24T09:59:25;18.70;91.10
11304;DHT22;5707;49.588;12.148;2023-04-24T10:01:51;18.30;90.40
11304;DHT22;5707;49.588;12.148;2023-04-24T10:04:23;17.70;91.10
11304;DHT22;5707;49.588;12.148;2023-04-24T10:06:50;17.40;91.90
11304;DHT22;5707;49.588;12.148;2023-04-24T10:09:21;17.30;91.80
11304;DHT22;5707;49.588;12.148;2023-04-24T10:11:49;17.50;92.50
11304;DHT22;5707;49.588;12.148;2023-04-24T10:14:17;17.70;90.60
11304;DHT22;5707;49.588;12.148;2023-04-24T10:16:44;17.30;90.70
11304;DHT22;5707;49.588;12.148;2023-04-24T10:19:12;17.40;93.00
11304;DHT22;5707;49.588;12.148;2023-04-24T10:21:40;17.60;91.70
11304;DHT22;5707;49.588;12.148;2023-04-24T10:24:08;17.80;91.70
11304;DHT22;5707;49.588;12.148;2023-04-24T10:26:34;17.90;87.20
11304;DHT22;5707;49.588;12.148;2023-04-24T10:29:01;18.30;88.70
11304;DHT22;5707;49.588;12.148;2023-04-24T10:31:29;18.50;85.70
11304;DHT22;5707;49.588;12.148;2023-04-24T10:33:56;18.50;81.10
11304;DHT22;5707;49.588;12.148;2023-04-24T10:36:24;18.30;79.50
11304;DHT22;5707;49.588;12.148;2023-04-24T10:38:52;18.20;82.70
11304;DHT22;5707;49.588;12.148;2023-04-24T10:41:20;18.30;81.40
11304;DHT22;5707;49.588;12.148;2023-04-24T10:43:48;18.60;81.70
11304;DHT22;5707;49.588;12.148;2023-04-24T10:46:30;18.40;83.10
11304;DHT22;5707;49.588;12.148;2023-04-24T10:48:56;18.10;85.60
11304;DHT22;5707;49.588;12.148;2023-04-24T10:51:22;17.80;86.60
11304;DHT22;5707;49.588;12.148;2023-04-24T10:53:52;17.50;87.60
11304;DHT22;5707;49.588;12.148;2023-04-24T10:56:18;17.80;87.30
11304;DHT22;5707;49.588;12.148;2023-04-24T10:58:51;18.30;86.40
11304;DHT22;5707;49.588;12.148;2023-04-24T11:01:24;18.60;80.10
11304;DHT22;5707;49.588;12.148;2023-04-24T11:03:55;17.90;88.90
11304;DHT22;5707;49.588;12.148;2023-04-24T11:06:32;17.10;86.80
11304;DHT22;5707;49.588;12.148;2023-04-24T11:09:03;17.10;87.70
11304;DHT22;5707;49.588;12.148;2023-04-24T11:11:32;17.50;90.10
11304;DHT22;5707;49.588;12.148;2023-04-24T11:18:56;19.60;82.00
11304;DHT22;5707;49.588;12.148;2023-04-24T11:21:25;19.50;82.20
11304;DHT22;5707;49.588;12.148;2023-04-24T11:23:51;19.60;76.70
11304;DHT22;5707;49.588;12.148;2023-04-24T11:26:19;19.20;76.70
11304;DHT22;5707;49.588;12.148;2023-04-24T11:28:49;19.10;76.30
11304;DHT22;5707;49.588;12.148;2023-04-24T11:31:40;19.30;77.10
11304;DHT22;5707;49.588;12.148;2023-04-24T11:34:12;19.40;72.90
11304;DHT22;5707;49.588;12.148;2023-04-24T11:36:39;19.80;76.00
11304;DHT22;5707;49.588;12.148;2023-04-24T11:39:05;20.30;76.10
11304;DHT22;5707;49.588;12.148;2023-04-24T11:41:32;20.40;69.60
11304;DHT22;5707;49.588;12.148;2023-04-24T11:43:58;20.30;68.90
11304;DHT22;5707;49.588;12.148;2023-04-24T11:46:27;19.80;67.50
11304;DHT22;5707;49.588;12.148;2023-04-24T11:48:54;19.10;67.00
11304;DHT22;5707;49.588;12.148;2023-04-24T11:51:19;18.80;73.40
11304;DHT22;5707;49.588;12.148;2023-04-24T11:53:45;18.40;72.30
11304;DHT22;5707;49.588;12.148;2023-04-24T11:56:10;18.20;71.70
11304;DHT22;5707;49.588;12.148;2023-04-24T11:58:38;18.10;70.70
11304;DHT22;5707;49.588;12.148;2023-04-24T12:01:04;18.00;72.00
11304;DHT22;5707;49.588;12.148;2023-04-24T12:03:31;17.90;73.70
11304;DHT22;5707;49.588;12.148;2023-04-24T12:06:15;17.90;73.30
11304;DHT22;5707;49.588;12.148;2023-04-24T12:08:40;17.90;68.50
11304;DHT22;5707;49.588;12.148;2023-04-24T12:11:07;17.60;72.00
11304;DHT22;5707;49.588;12.148;2023-04-24T12:13:34;17.60;74.50
11304;DHT22;5707;49.588;12.148;2023-04-24T12:16:02;17.70;73.10
11304;DHT22;5707;49.588;12.148;2023-04-24T12:18:28;18.00;72.90
11304;DHT22;5707;49.588;12.148;2023-04-24T12:20:54;18.60;76.90
11304;DHT22;5707;49.588;12.148;2023-04-24T12:23:35;18.90;71.20
11304;DHT22;5707;49.588;12.148;2023-04-24T12:26:03;18.90;72.80
11304;DHT22;5707;49.588;12.148;2023-04-24T12:28:35;18.80;75.40
11304;DHT22;5707;49.588;12.148;2023-04-24T12:31:02;18.70;74.90
11304;DHT22;5707;49.588;12.148;2023-04-24T12:33:28;18.50;73.90
11304;DHT22;5707;49.588;12.148;2023-04-24T12:35:57;18.30;72.70
11304;DHT22;5707;49.588;12.148;2023-04-24T12:38:25;18.10;73.20
11304;DHT22;5707;49.588;12.148;2023-04-24T12:41:12;18.40;69.30
11304;DHT22;5707;49.588;12.148;2023-04-24T12:43:38;18.70;65.20
11304;DHT22;5707;49.588;12.148;2023-04-24T12:46:04;18.60;59.10
11304;DHT22;5707;49.588;12.148;2023-04-24T12:48:30;18.40;58.60
11304;DHT22;5707;49.588;12.148;2023-04-24T12:50:59;18.60;64.30
11304;DHT22;5707;49.588;12.148;2023-04-24T12:53:28;19.00;60.50
11304;DHT22;5707;49.588;12.148;2023-04-24T12:55:55;19.30;56.60
11304;DHT22;5707;49.588;12.148;2023-04-24T12:58:21;19.30;57.60
11304;DHT22;5707;49.588;12.148;2023-04-24T13:00:47;19.80;56.30
11304;DHT22;5707;49.588;12.148;2023-04-24T13:03:13;19.80;58.00
11304;DHT22;5707;49.588;12.148;2023-04-24T13:05:39;20.00;57.00
11304;DHT22;5707;49.588;12.148;2023-04-24T13:08:05;20.10;56.20
11304;DHT22;5707;49.588;12.148;2023-04-24T13:10:30;20.00;54.70
11304;DHT22;5707;49.588;12.148;2023-04-24T13:12:56;19.80;54.80
11304;DHT22;5707;49.588;12.148;2023-04-24T13:15:22;19.10;57.40
11304;DHT22;5707;49.588;12.148;2023-04-24T13:17:48;18.10;61.30
11304;DHT22;5707;49.588;12.148;2023-04-24T13:20:14;17.10;67.00
11304;DHT22;5707;49.588;12.148;2023-04-24T13:22:39;16.20;72.50
11304;DHT22;5707;49.588;12.148;2023-04-24T13:25:05;15.40;67.60
11304;DHT22;5707;49.588;12.148;2023-04-24T13:27:31;14.90;69.00
11304;DHT22;5707;49.588;12.148;2023-04-24T13:29:58;14.50;72.40
11304;DHT22;5707;49.588;12.148;2023-04-24T13:32:23;14.40;76.60
11304;DHT22;5707;49.588;12.148;2023-04-24T13:34:49;14.50;76.10
11304;DHT22;5707;49.588;12.148;2023-04-24T13:37:14;14.60;75.90
11304;DHT22;5707;49.588;12.148;2023-04-24T13:39:40;15.00;77.10
11304;DHT22;5707;49.588;12.148;2023-04-24T13:42:06;15.50;76.10
11304;DHT22;5707;49.588;12.148;2023-04-24T13:44:32;16.20;75.20
11304;DHT22;5707;49.588;12.148;2023-04-24T13:46:58;16.90;70.30
11304;DHT22;5707;49.588;12.148;2023-04-24T13:49:24;17.40;65.50
11304;DHT22;5707;49.588;12.148;2023-04-24T13:51:51;17.60;64.70
11304;DHT22;5707;49.588;12.148;2023-04-24T13:54:16;17.80;64.80
11304;DHT22;5707;49.588;12.148;2023-04-24T13:56:42;18.10;63.60
11304;DHT22;5707;49.588;12.148;2023-04-24T13:59:08;18.10;64.80
11304;DHT22;5707;49.588;12.148;2023-04-24T14:01:34;18.00;63.90
11304;DHT22;5707;49.588;12.148;2023-04-24T14:04:00;18.00;65.20
11304;DHT22;5707;49.588;12.148;2023-04-24T14:06:26;17.80;66.00
11304;DHT22;5707;49.588;12.148;2023-04-24T14:08:51;17.10;66.20
11304;DHT22;5707;49.588;12.148;2023-04-24T14:11:18;16.30;70.40
11304;DHT22;5707;49.588;12.148;2023-04-24T14:13:44;15.60;78.30
11304;DHT22;5707;49.588;12.148;2023-04-24T14:16:10;15.20;77.60
11304;DHT22;5707;49.588;12.148;2023-04-24T14:18:36;15.20;82.90
11304;DHT22;5707;49.588;12.148;2023-04-24T14:21:02;15.40;85.50
11304;DHT22;5707;49.588;12.148;2023-04-24T14:23:28;15.90;78.80
11304;DHT22;5707;49.588;12.148;2023-04-24T14:25:53;16.20;76.90
11304;DHT22;5707;49.588;12.148;2023-04-24T14:28:20;16.40;78.70
11304;DHT22;5707;49.588;12.148;2023-04-24T14:30:47;17.00;75.90
11304;DHT22;5707;49.588;12.148;2023-04-24T14:33:12;17.60;73.20
11304;DHT22;5707;49.588;12.148;2023-04-24T14:35:41;17.70;70.70
11304;DHT22;5707;49.588;12.148;2023-04-24T14:38:08;17.40;72.60
11304;DHT22;5707;49.588;12.148;2023-04-24T14:40:34;17.10;73.60
11304;DHT22;5707;49.588;12.148;2023-04-24T14:43:00;17.00;75.00
11304;DHT22;5707;49.588;12.148;2023-04-24T14:45:26;17.00;76.10
11304;DHT22;5707;49.588;12.148;2023-04-24T14:47:52;17.10;70.30
11304;DHT22;5707;49.588;12.148;2023-04-24T14:50:18;16.90;69.00
11304;DHT22;5707;49.588;12.148;2023-04-24T14:52:44;17.20;70.60
11304;DHT22;5707;49.588;12.148;2023-04-24T14:55:09;17.40;68.60
11304;DHT22;5707;49.588;12.148;2023-04-24T14:57:35;17.60;69.20
11304;DHT22;5707;49.588;12.148;2023-04-24T15:00:02;17.40;70.30
11304;DHT22;5707;49.588;12.148;2023-04-24T15:02:29;17.10;71.80
11304;DHT22;5707;49.588;12.148;2023-04-24T15:04:54;16.90;71.40
11304;DHT22;5707;49.588;12.148;2023-04-24T15:07:20;16.40;75.90
11304;DHT22;5707;49.588;12.148;2023-04-24T15:09:46;16.20;74.00
11304;DHT22;5707;49.588;12.148;2023-04-24T15:12:12;15.90;77.20
11304;DHT22;5707;49.588;12.148;2023-04-24T15:14:38;15.90;76.60
11304;DHT22;5707;49.588;12.148;2023-04-24T15:17:04;16.00;75.20
11304;DHT22;5707;49.588;12.148;2023-04-24T15:19:30;16.10;76.60
11304;DHT22;5707;49.588;12.148;2023-04-24T15:21:56;16.10;76.60
11304;DHT22;5707;49.588;12.148;2023-04-24T15:24:21;16.30;78.00
11304;DHT22;5707;49.588;12.148;2023-04-24T15:26:47;16.50;78.40
11304;DHT22;5707;49.588;12.148;2023-04-24T15:29:12;16.50;79.20
11304;DHT22;5707;49.588;12.148;2023-04-24T15:31:38;16.50;76.00
11304;DHT22;5707;49.588;12.148;2023-04-24T15:34:05;16.30;77.10
11304;DHT22;5707;49.588;12.148;2023-04-24T15:36:31;16.30;76.60
11304;DHT22;5707;49.588;12.148;2023-04-24T15:38:57;16.50;78.30